createdAt,value
2018-10-07T00:00:22.508Z,13.77
2018-10-07T00:01:31.854Z,13.75
2018-10-07T00:02:41.695Z,13.73
2018-10-07T00:03:51.536Z,13.69
2018-10-07T00:05:01.103Z,13.67
2018-10-07T00:06:11.216Z,13.57
2018-10-07T00:07:21.108Z,13.57
2018-10-07T00:08:30.413Z,13.42
2018-10-07T00:09:39.983Z,13.39
2018-10-07T00:10:49.826Z,13.29
2018-10-07T00:11:59.671Z,13.26
2018-10-07T00:13:09.556Z,13.07
2018-10-07T00:14:19.130Z,13.08
2018-10-07T00:15:28.430Z,13.03
2018-10-07T00:16:38.004Z,12.96
2018-10-07T00:17:47.584Z,12.97
2018-10-07T00:18:57.481Z,12.97
2018-10-07T00:20:07.320Z,12.97
2018-10-07T00:21:17.163Z,13.05
2018-10-07T00:22:26.731Z,13.08
2018-10-07T00:23:36.840Z,13.08
2018-10-07T00:24:46.948Z,13.01
2018-10-07T00:25:56.785Z,12.95
2018-10-07T00:27:06.092Z,12.95
2018-10-07T00:28:15.657Z,13.05
2018-10-07T00:29:25.763Z,12.95
2018-10-07T00:30:35.610Z,12.9
2018-10-07T00:31:45.716Z,12.86
2018-10-07T00:32:55.561Z,12.85
2018-10-07T00:34:05.403Z,12.87
2018-10-07T00:35:14.974Z,12.77
2018-10-07T00:36:24.861Z,12.72
2018-10-07T00:37:34.972Z,12.67
2018-10-07T00:38:44.540Z,12.7
2018-10-07T00:39:54.113Z,12.7
2018-10-07T00:41:03.967Z,12.52
2018-10-07T00:42:13.803Z,12.57
2018-10-07T00:43:23.648Z,12.49
2018-10-07T00:44:33.756Z,12.38
2018-10-07T00:45:43.328Z,12.53
2018-10-07T00:46:53.493Z,12.46
2018-10-07T00:48:03.338Z,12.42
2018-10-07T00:49:13.191Z,12.34
2018-10-07T00:50:22.759Z,12.37
2018-10-07T00:51:32.874Z,12.39
2018-10-07T00:52:42.443Z,12.34
2018-10-07T00:53:51.739Z,12.45
2018-10-07T00:55:01.307Z,12.19
2018-10-07T00:56:10.605Z,12.32
2018-10-07T00:57:20.712Z,12.13
2018-10-07T00:58:30.560Z,12.2
2018-10-07T00:59:40.685Z,12.14
2018-10-07T01:00:50.526Z,12.24
2018-10-07T01:02:00.658Z,12.28
2018-10-07T01:03:10.502Z,12.32
2018-10-07T01:04:20.341Z,12.32
2018-10-07T01:05:30.455Z,12.14
2018-10-07T01:06:39.750Z,12.16
2018-10-07T01:07:49.325Z,12.19
2018-10-07T01:08:59.168Z,12.05
2018-10-07T01:10:08.479Z,12.2
2018-10-07T01:11:18.638Z,12.17
2018-10-07T01:12:28.474Z,12.2
2018-10-07T01:13:38.047Z,12.14
2018-10-07T01:14:48.150Z,12.19
2018-10-07T01:15:58.258Z,12.07
2018-10-07T01:17:08.368Z,12.05
2018-10-07T01:18:18.203Z,11.96
2018-10-07T01:19:28.044Z,11.88
2018-10-07T01:20:38.165Z,11.91
2018-10-07T01:21:48.053Z,11.88
2018-10-07T01:22:58.165Z,12.02
2018-10-07T01:24:07.739Z,11.95
2018-10-07T01:25:17.576Z,11.91
2018-10-07T01:26:27.715Z,11.78
2018-10-07T01:27:37.826Z,11.79
2018-10-07T01:28:47.128Z,11.83
2018-10-07T01:29:56.971Z,11.7
2018-10-07T01:31:06.814Z,11.6
2018-10-07T01:32:16.393Z,11.55
2018-10-07T01:33:26.234Z,11.47
2018-10-07T01:34:36.123Z,11.57
2018-10-07T01:35:45.972Z,11.42
2018-10-07T01:36:55.281Z,11.43
2018-10-07T01:38:05.397Z,11.51
2018-10-07T01:39:14.974Z,11.49
2018-10-07T01:40:24.322Z,11.4
2018-10-07T01:41:34.164Z,11.32
2018-10-07T01:42:43.729Z,11.35
2018-10-07T01:43:53.566Z,11.36
2018-10-07T01:45:03.407Z,11.35
2018-10-07T01:46:13.242Z,11.19
2018-10-07T01:47:22.542Z,11.09
2018-10-07T01:48:32.377Z,11.28
2018-10-07T01:49:42.213Z,11.21
2018-10-07T01:50:50.970Z,11
2018-10-07T01:52:00.591Z,11
2018-10-07T01:53:10.703Z,10.94
2018-10-07T01:54:20.817Z,11.02
2018-10-07T01:55:30.122Z,11
2018-10-07T01:56:40.239Z,11.07
2018-10-07T01:57:49.857Z,10.92
2018-10-07T01:58:59.449Z,11.06
2018-10-07T02:00:09.301Z,10.91
2018-10-07T02:01:18.601Z,10.91
2018-10-07T02:02:27.905Z,11
2018-10-07T02:03:37.477Z,10.96
2018-10-07T02:04:47.050Z,11
2018-10-07T02:05:56.897Z,10.89
2018-10-07T02:07:05.926Z,10.99
2018-10-07T02:08:15.768Z,10.97
2018-10-07T02:09:25.886Z,10.88
2018-10-07T02:10:35.994Z,10.86
2018-10-07T02:11:45.565Z,10.97
2018-10-07T02:12:55.140Z,10.84
2018-10-07T02:14:04.942Z,10.79
2018-10-07T02:15:15.130Z,10.73
2018-10-07T02:16:24.964Z,10.73
2018-10-07T02:17:34.802Z,10.64
2018-10-07T02:18:44.908Z,10.73
2018-10-07T02:19:54.755Z,10.74
2018-10-07T02:21:04.324Z,10.81
2018-10-07T02:22:13.890Z,10.68
2018-10-07T02:23:23.725Z,10.76
2018-10-07T02:24:33.563Z,10.66
2018-10-07T02:25:43.135Z,10.67
2018-10-07T02:26:52.757Z,10.66
2018-10-07T02:28:02.590Z,10.61
2018-10-07T02:29:12.161Z,10.52
2018-10-07T02:30:22.004Z,10.45
2018-10-07T02:31:31.865Z,10.41
2018-10-07T02:32:42.022Z,10.47
2018-10-07T02:33:51.868Z,10.59
2018-10-07T02:35:01.711Z,10.42
2018-10-07T02:36:11.568Z,10.41
2018-10-07T02:37:21.141Z,10.42
2018-10-07T02:38:30.981Z,10.42
2018-10-07T02:39:40.820Z,10.47
2018-10-07T02:40:50.390Z,10.42
2018-10-07T02:41:59.413Z,10.4
2018-10-07T02:43:09.338Z,10.44
2018-10-07T02:44:19.145Z,10.45
2018-10-07T02:45:29.268Z,10.45
2018-10-07T02:46:38.893Z,10.41
2018-10-07T02:47:48.734Z,10.3
2018-10-07T02:48:58.575Z,10.25
2018-10-07T02:50:08.141Z,10.27
2018-10-07T02:51:18.250Z,10.26
2018-10-07T02:52:27.815Z,10.33
2018-10-07T02:53:37.655Z,10.22
2018-10-07T02:54:47.490Z,10.4
2018-10-07T02:55:57.669Z,10.29
2018-10-07T02:57:07.250Z,10.2
2018-10-07T02:58:17.368Z,10.18
2018-10-07T02:59:27.212Z,10.09
2018-10-07T03:00:36.783Z,10.09
2018-10-07T03:01:46.673Z,10.2
2018-10-07T03:02:56.521Z,10.05
2018-10-07T03:04:06.365Z,9.91
2018-10-07T03:05:15.939Z,10.04
2018-10-07T03:06:25.790Z,9.99
2018-10-07T03:07:35.360Z,10.04
2018-10-07T03:08:45.219Z,10.05
2018-10-07T03:09:54.513Z,10.23
2018-10-07T03:11:04.622Z,10.2
2018-10-07T03:12:14.196Z,10.12
2018-10-07T03:13:23.818Z,10.04
2018-10-07T03:14:33.388Z,10.01
2018-10-07T03:15:43.235Z,10.02
2018-10-07T03:16:53.343Z,10.01
2018-10-07T03:18:02.927Z,10.04
2018-10-07T03:19:12.502Z,10.07
2018-10-07T03:20:21.820Z,9.94
2018-10-07T03:21:31.666Z,10.08
2018-10-07T03:22:41.520Z,10.01
2018-10-07T03:23:51.088Z,9.89
2018-10-07T03:25:01.205Z,9.87
2018-10-07T03:26:11.317Z,9.93
2018-10-07T03:27:21.420Z,9.9
2018-10-07T03:28:31.527Z,9.9
2018-10-07T03:29:41.816Z,9.99
2018-10-07T03:30:51.681Z,9.96
2018-10-07T03:32:01.566Z,10.11
2018-10-07T03:33:11.695Z,10.04
2018-10-07T03:34:20.999Z,9.9
2018-10-07T03:35:30.838Z,9.9
2018-10-07T03:36:40.188Z,9.79
2018-10-07T03:37:50.298Z,9.84
2018-10-07T03:39:00.411Z,9.83
2018-10-07T03:40:10.520Z,9.84
2018-10-07T03:41:20.083Z,9.81
2018-10-07T03:42:30.206Z,9.81
2018-10-07T03:43:39.770Z,9.93
2018-10-07T03:44:49.333Z,9.9
2018-10-07T03:45:59.439Z,9.89
2018-10-07T03:47:09.271Z,9.79
2018-10-07T03:48:18.889Z,9.91
2018-10-07T03:49:28.457Z,9.86
2018-10-07T03:50:38.026Z,9.76
2018-10-07T03:51:47.658Z,9.76
2018-10-07T03:52:56.947Z,9.78
2018-10-07T03:54:07.065Z,9.76
2018-10-07T03:55:17.169Z,9.81
2018-10-07T03:56:27.277Z,9.84
2018-10-07T03:57:36.309Z,9.79
2018-10-07T03:58:45.614Z,9.81
2018-10-07T03:59:55.725Z,9.79
2018-10-07T04:01:05.838Z,9.76
2018-10-07T04:02:15.411Z,9.91
2018-10-07T04:03:24.713Z,9.76
2018-10-07T04:04:34.550Z,9.69
2018-10-07T04:05:43.847Z,9.76
2018-10-07T04:06:53.153Z,9.72
2018-10-07T04:08:02.454Z,9.66
2018-10-07T04:09:12.288Z,9.75
2018-10-07T04:10:22.131Z,9.72
2018-10-07T04:11:31.975Z,9.78
2018-10-07T04:12:41.549Z,9.61
2018-10-07T04:13:51.398Z,9.69
2018-10-07T04:15:01.507Z,9.61
2018-10-07T04:16:11.075Z,9.69
2018-10-07T04:17:20.912Z,9.54
2018-10-07T04:18:30.755Z,9.54
2018-10-07T04:19:40.326Z,9.47
2018-10-07T04:20:50.182Z,9.57
2018-10-07T04:22:00.018Z,9.53
2018-10-07T04:23:09.858Z,9.5
2018-10-07T04:24:19.428Z,9.54
2018-10-07T04:25:29.268Z,9.51
2018-10-07T04:26:38.840Z,9.43
2018-10-07T04:27:48.417Z,9.4
2018-10-07T04:28:58.259Z,9.4
2018-10-07T04:30:08.377Z,9.56
2018-10-07T04:31:17.941Z,9.47
2018-10-07T04:32:28.050Z,9.35
2018-10-07T04:33:37.353Z,9.21
2018-10-07T04:34:46.648Z,9.32
2018-10-07T04:35:56.480Z,9.33
2018-10-07T04:37:06.057Z,9.28
2018-10-07T04:38:16.160Z,9.35
2018-10-07T04:39:26.023Z,9.39
2018-10-07T04:40:36.136Z,9.35
2018-10-07T04:41:46.253Z,9.17
2018-10-07T04:42:55.824Z,9.2
2018-10-07T04:44:05.943Z,9.24
2018-10-07T04:45:15.247Z,9.13
2018-10-07T04:46:25.712Z,9.23
2018-10-07T04:47:35.865Z,9.26
2018-10-07T04:48:45.708Z,9.13
2018-10-07T04:49:55.547Z,9.08
2018-10-07T04:51:05.395Z,9.1
2018-10-07T04:52:15.232Z,9.21
2018-10-07T04:53:25.078Z,9.26
2018-10-07T04:54:34.656Z,9.13
2018-10-07T04:55:44.761Z,9.18
2018-10-07T04:56:54.060Z,9.1
2018-10-07T04:58:04.175Z,9.08
2018-10-07T04:59:14.432Z,9.04
2018-10-07T05:00:24.619Z,9.17
2018-10-07T05:01:34.814Z,8.99
2018-10-07T05:02:44.649Z,8.94
2018-10-07T05:03:54.509Z,8.95
2018-10-07T05:05:04.353Z,8.89
2018-10-07T05:06:14.189Z,8.91
2018-10-07T05:07:23.756Z,8.83
2018-10-07T05:08:33.335Z,8.89
2018-10-07T05:09:43.176Z,8.99
2018-10-07T05:10:53.014Z,8.77
2018-10-07T05:12:03.137Z,8.73
2018-10-07T05:13:12.731Z,8.91
2018-10-07T05:14:22.574Z,8.7
2018-10-07T05:15:32.413Z,8.76
2018-10-07T05:16:41.979Z,8.76
2018-10-07T05:17:51.819Z,8.62
2018-10-07T05:19:01.384Z,8.77
2018-10-07T05:20:10.954Z,8.65
2018-10-07T05:21:20.530Z,8.59
2018-10-07T05:22:30.364Z,8.62
2018-10-07T05:23:40.195Z,8.58
2018-10-07T05:24:50.323Z,8.58
2018-10-07T05:25:59.897Z,8.58
2018-10-07T05:27:09.488Z,8.56
2018-10-07T05:28:19.330Z,8.44
2018-10-07T05:29:29.165Z,8.48
2018-10-07T05:30:39.274Z,8.44
2018-10-07T05:31:49.384Z,8.48
2018-10-07T05:32:59.252Z,8.55
2018-10-07T05:34:09.174Z,8.44
2018-10-07T05:35:19.021Z,8.63
2018-10-07T05:36:28.873Z,8.52
2018-10-07T05:37:38.983Z,8.45
2018-10-07T05:38:49.089Z,8.44
2018-10-07T05:39:58.946Z,8.43
2018-10-07T05:41:08.517Z,8.48
2018-10-07T05:42:18.631Z,8.47
2018-10-07T05:43:28.745Z,8.44
2018-10-07T05:44:38.229Z,8.41
2018-10-07T05:45:48.217Z,8.3
2018-10-07T05:46:58.324Z,8.44
2018-10-07T05:48:08.433Z,8.44
2018-10-07T05:49:18.549Z,8.44
2018-10-07T05:50:28.385Z,8.37
2018-10-07T05:51:38.224Z,8.41
2018-10-07T05:52:47.522Z,8.38
2018-10-07T05:53:57.639Z,8.34
2018-10-07T05:55:07.206Z,8.3
2018-10-07T05:56:17.042Z,8.37
2018-10-07T05:57:27.157Z,8.33
2018-10-07T05:58:37.293Z,8.3
2018-10-07T05:59:47.137Z,8.33
2018-10-07T06:00:56.708Z,8.36
2018-10-07T06:02:06.686Z,8.3
2018-10-07T06:03:17.096Z,8.33
2018-10-07T06:04:27.239Z,8.28
2018-10-07T06:05:37.348Z,8.36
2018-10-07T06:06:47.192Z,8.36
2018-10-07T06:07:57.306Z,8.43
2018-10-07T06:09:06.937Z,8.38
2018-10-07T06:10:16.506Z,8.38
2018-10-07T06:11:26.617Z,8.33
2018-10-07T06:12:36.457Z,8.37
2018-10-07T06:13:45.751Z,8.33
2018-10-07T06:14:56.335Z,8.36
2018-10-07T06:16:06.318Z,8.25
2018-10-07T06:17:16.172Z,8.26
2018-10-07T06:18:25.744Z,8.3
2018-10-07T06:19:35.053Z,8.33
2018-10-07T06:20:44.622Z,8.3
2018-10-07T06:21:54.191Z,8.3
2018-10-07T06:23:03.757Z,8.29
2018-10-07T06:24:13.322Z,8.3
2018-10-07T06:25:22.616Z,8.34
2018-10-07T06:26:32.738Z,8.33
2018-10-07T06:27:42.850Z,8.36
2018-10-07T06:28:52.962Z,8.36
2018-10-07T06:30:02.419Z,8.29
2018-10-07T06:31:12.119Z,8.38
2018-10-07T06:32:22.248Z,8.28
2018-10-07T06:33:31.824Z,8.37
2018-10-07T06:34:41.120Z,8.3
2018-10-07T06:35:51.228Z,8.22
2018-10-07T06:37:01.118Z,8.33
2018-10-07T06:38:10.647Z,8.33
2018-10-07T06:39:20.761Z,8.26
2018-10-07T06:40:30.610Z,8.41
2018-10-07T06:41:40.718Z,8.34
2018-10-07T06:42:50.019Z,8.33
2018-10-07T06:43:59.639Z,8.44
2018-10-07T06:45:09.239Z,8.4
2018-10-07T06:46:19.379Z,8.45
2018-10-07T06:47:29.227Z,8.44
2018-10-07T06:48:39.066Z,8.4
2018-10-07T06:49:48.632Z,8.44
2018-10-07T06:50:58.465Z,8.44
2018-10-07T06:52:07.767Z,8.47
2018-10-07T06:53:17.348Z,8.56
2018-10-07T06:54:27.187Z,8.55
2018-10-07T06:55:37.293Z,8.45
2018-10-07T06:56:47.131Z,8.45
2018-10-07T06:57:56.978Z,8.45
2018-10-07T06:59:06.282Z,8.41
2018-10-07T07:00:15.585Z,8.5
2018-10-07T07:01:25.160Z,8.48
2018-10-07T07:02:35.002Z,8.48
2018-10-07T07:03:44.845Z,8.47
2018-10-07T07:04:54.957Z,8.48
2018-10-07T07:06:04.262Z,8.48
2018-10-07T07:07:14.421Z,8.45
2018-10-07T07:08:24.261Z,8.48
2018-10-07T07:09:33.832Z,8.45
2018-10-07T07:10:43.401Z,8.47
2018-10-07T07:11:53.251Z,8.59
2018-10-07T07:13:03.382Z,8.62
2018-10-07T07:14:13.793Z,8.53
2018-10-07T07:15:23.904Z,8.55
2018-10-07T07:16:34.013Z,8.58
2018-10-07T07:17:43.858Z,8.63
2018-10-07T07:18:53.153Z,8.58
2018-10-07T07:20:03.532Z,8.61
2018-10-07T07:21:13.824Z,8.63
2018-10-07T07:22:23.393Z,8.59
2018-10-07T07:23:32.959Z,8.7
2018-10-07T07:24:42.579Z,8.59
2018-10-07T07:25:52.413Z,8.58
2018-10-07T07:27:02.255Z,8.53
2018-10-07T07:28:11.278Z,8.59
2018-10-07T07:29:21.379Z,8.58
2018-10-07T07:30:31.484Z,8.68
2018-10-07T07:31:41.052Z,8.7
2018-10-07T07:32:51.170Z,8.73
2018-10-07T07:34:00.740Z,8.74
2018-10-07T07:35:09.766Z,8.7
2018-10-07T07:36:19.071Z,8.63
2018-10-07T07:37:29.183Z,8.73
2018-10-07T07:38:39.020Z,8.68
2018-10-07T07:39:48.050Z,8.7
2018-10-07T07:40:57.629Z,8.63
2018-10-07T07:42:07.746Z,8.79
2018-10-07T07:43:17.966Z,8.74
2018-10-07T07:44:27.541Z,8.98
2018-10-07T07:45:37.376Z,8.95
2018-10-07T07:46:47.228Z,8.95
2018-10-07T07:47:56.526Z,8.96
2018-10-07T07:49:06.268Z,8.95
2018-10-07T07:50:16.004Z,8.94
2018-10-07T07:51:26.122Z,9.08
2018-10-07T07:52:35.968Z,8.95
2018-10-07T07:53:46.084Z,8.94
2018-10-07T07:54:55.935Z,8.87
2018-10-07T07:56:05.772Z,8.95
2018-10-07T07:57:15.886Z,9.1
2018-10-07T07:58:25.452Z,9.05
2018-10-07T07:59:34.748Z,9.11
2018-10-07T08:00:44.588Z,9.15
2018-10-07T08:01:54.150Z,9.14
2018-10-07T08:03:03.726Z,9.2
2018-10-07T08:04:13.566Z,9.14
2018-10-07T08:05:23.416Z,9.32
2018-10-07T08:06:32.987Z,9.23
2018-10-07T08:07:42.833Z,9.2
2018-10-07T08:08:52.818Z,9.21
2018-10-07T08:10:02.928Z,9.2
2018-10-07T08:11:12.816Z,9.32
2018-10-07T08:12:22.934Z,9.23
2018-10-07T08:13:32.790Z,9.39
2018-10-07T08:14:42.386Z,9.36
2018-10-07T08:15:51.681Z,9.33
2018-10-07T08:17:01.784Z,9.38
2018-10-07T08:18:11.689Z,9.51
2018-10-07T08:19:21.803Z,9.43
2018-10-07T08:20:31.652Z,9.38
2018-10-07T08:21:41.510Z,9.39
2018-10-07T08:22:51.083Z,9.46
2018-10-07T08:24:01.221Z,9.48
2018-10-07T08:25:10.796Z,9.39
2018-10-07T08:26:20.631Z,9.57
2018-10-07T08:27:30.469Z,9.54
2018-10-07T08:28:40.036Z,9.57
2018-10-07T08:29:50.276Z,9.5
2018-10-07T08:31:00.127Z,9.64
2018-10-07T08:32:09.706Z,9.71
2018-10-07T08:33:19.542Z,9.79
2018-10-07T08:34:29.390Z,9.89
2018-10-07T08:35:38.690Z,9.84
2018-10-07T08:36:48.260Z,9.74
2018-10-07T08:37:58.367Z,9.84
2018-10-07T08:39:07.937Z,9.87
2018-10-07T08:40:17.237Z,10.11
2018-10-07T08:41:26.809Z,9.83
2018-10-07T08:42:36.646Z,9.84
2018-10-07T08:43:46.489Z,9.9
2018-10-07T08:44:55.792Z,9.96
2018-10-07T08:46:05.908Z,10.04
2018-10-07T08:47:15.751Z,10.09
2018-10-07T08:48:25.870Z,10.15
2018-10-07T08:49:34.900Z,10.17
2018-10-07T08:50:45.126Z,10.25
2018-10-07T08:51:55.289Z,10.29
2018-10-07T08:53:05.135Z,10.2
2018-10-07T08:54:15.248Z,10.25
2018-10-07T08:55:24.817Z,10.22
2018-10-07T08:56:34.600Z,10.14
2018-10-07T08:57:44.198Z,10.18
2018-10-07T08:58:54.043Z,10.22
2018-10-07T09:00:03.617Z,10.23
2018-10-07T09:01:12.910Z,10.25
2018-10-07T09:02:22.483Z,10.2
2018-10-07T09:03:31.508Z,10.29
2018-10-07T09:04:41.345Z,10.25
2018-10-07T09:05:51.453Z,10.25
2018-10-07T09:07:01.018Z,10.36
2018-10-07T09:08:10.583Z,10.33
2018-10-07T09:09:20.422Z,10.42
2018-10-07T09:10:29.454Z,10.48
2018-10-07T09:11:39.024Z,10.52
2018-10-07T09:12:48.867Z,10.61
2018-10-07T09:13:58.979Z,10.64
2018-10-07T09:15:08.828Z,10.73
2018-10-07T09:16:18.689Z,10.91
2018-10-07T09:17:28.801Z,10.85
2018-10-07T09:18:38.910Z,10.88
2018-10-07T09:19:48.750Z,10.97
2018-10-07T09:20:58.836Z,11.06
2018-10-07T09:22:09.308Z,11.03
2018-10-07T09:23:19.150Z,10.89
2018-10-07T09:24:29.036Z,10.91
2018-10-07T09:25:39.145Z,10.89
2018-10-07T09:26:48.304Z,10.88
2018-10-07T09:27:58.067Z,10.99
2018-10-07T09:29:07.642Z,11.02
2018-10-07T09:30:17.758Z,10.92
2018-10-07T09:31:27.878Z,11.09
2018-10-07T09:32:37.767Z,11.04
2018-10-07T09:33:47.772Z,11.04
2018-10-07T09:34:57.340Z,11
2018-10-07T09:36:07.190Z,11.07
2018-10-07T09:37:16.497Z,11.1
2018-10-07T09:38:26.116Z,11.18
2018-10-07T09:39:36.085Z,11.18
2018-10-07T09:40:45.696Z,11.19
2018-10-07T09:41:55.540Z,11.27
2018-10-07T09:43:04.571Z,11.33
2018-10-07T09:44:14.146Z,11.35
2018-10-07T09:45:23.714Z,11.32
2018-10-07T09:46:33.564Z,11.35
2018-10-07T09:47:43.400Z,11.49
2018-10-07T09:48:52.968Z,11.55
2018-10-07T09:50:03.100Z,11.55
2018-10-07T09:51:12.946Z,11.62
2018-10-07T09:52:22.723Z,11.61
2018-10-07T09:53:33.192Z,11.54
2018-10-07T09:54:42.488Z,11.55
2018-10-07T09:55:52.621Z,11.52
2018-10-07T09:57:02.737Z,11.51
2018-10-07T09:58:12.455Z,11.57
2018-10-07T09:59:22.307Z,11.6
2018-10-07T10:00:32.156Z,11.58
2018-10-07T10:01:41.729Z,11.64
2018-10-07T10:02:51.571Z,11.62
2018-10-07T10:04:01.816Z,11.69
2018-10-07T10:05:11.497Z,11.76
2018-10-07T10:06:20.809Z,11.94
2018-10-07T10:07:30.381Z,11.94
2018-10-07T10:08:39.951Z,11.86
2018-10-07T10:09:49.849Z,11.95
2018-10-07T10:11:00.144Z,11.94
2018-10-07T10:12:09.761Z,11.91
2018-10-07T10:13:19.598Z,11.85
2018-10-07T10:14:29.176Z,11.91
2018-10-07T10:15:39.287Z,11.96
2018-10-07T10:16:48.316Z,11.94
2018-10-07T10:17:57.611Z,12.02
2018-10-07T10:19:07.452Z,11.94
2018-10-07T10:20:17.295Z,11.95
2018-10-07T10:21:26.598Z,11.94
2018-10-07T10:22:36.702Z,12.02
2018-10-07T10:23:46.546Z,12.23
2018-10-07T10:24:56.115Z,12.14
2018-10-07T10:26:05.964Z,12.28
2018-10-07T10:27:15.532Z,12.29
2018-10-07T10:28:25.102Z,12.35
2018-10-07T10:29:34.410Z,12.41
2018-10-07T10:30:43.710Z,12.53
2018-10-07T10:31:53.301Z,12.49
2018-10-07T10:33:03.151Z,12.54
2018-10-07T10:34:12.997Z,12.54
2018-10-07T10:35:22.599Z,12.62
2018-10-07T10:36:32.447Z,12.53
2018-10-07T10:37:42.291Z,12.53
2018-10-07T10:38:52.132Z,12.59
2018-10-07T10:40:02.306Z,12.49
2018-10-07T10:41:12.885Z,12.5
2018-10-07T10:42:22.996Z,12.56
2018-10-07T10:43:33.108Z,12.56
2018-10-07T10:44:42.683Z,12.54
2018-10-07T10:45:52.254Z,12.52
2018-10-07T10:47:02.372Z,12.59
2018-10-07T10:48:12.390Z,12.57
2018-10-07T10:49:22.507Z,12.53
2018-10-07T10:50:32.135Z,12.57
2018-10-07T10:51:41.974Z,12.64
2018-10-07T10:52:52.085Z,12.56
2018-10-07T10:54:01.680Z,12.53
2018-10-07T10:55:12.021Z,12.5
2018-10-07T10:56:22.144Z,12.54
2018-10-07T10:57:31.984Z,12.54
2018-10-07T10:58:41.287Z,12.56
2018-10-07T10:59:51.401Z,12.49
2018-10-07T11:01:00.973Z,12.57
2018-10-07T11:02:10.946Z,12.56
2018-10-07T11:03:20.253Z,12.62
2018-10-07T11:04:30.659Z,12.6
2018-10-07T11:05:40.196Z,12.64
2018-10-07T11:06:50.049Z,12.68
2018-10-07T11:07:59.507Z,12.71
2018-10-07T11:09:09.216Z,12.7
2018-10-07T11:10:19.617Z,12.59
2018-10-07T11:11:29.725Z,12.77
2018-10-07T11:12:39.298Z,12.78
2018-10-07T11:13:49.705Z,12.85
2018-10-07T11:14:59.761Z,12.79
2018-10-07T11:16:09.065Z,12.83
2018-10-07T11:17:18.377Z,12.86
2018-10-07T11:18:28.222Z,12.95
2018-10-07T11:19:38.555Z,12.85
2018-10-07T11:20:48.484Z,12.9
2018-10-07T11:21:58.603Z,12.83
2018-10-07T11:23:08.449Z,12.86
2018-10-07T11:24:18.289Z,12.92
2018-10-07T11:25:28.128Z,12.83
2018-10-07T11:26:37.696Z,12.87
2018-10-07T11:27:47.265Z,12.79
2018-10-07T11:28:57.370Z,12.96
2018-10-07T11:30:06.953Z,12.93
2018-10-07T11:31:16.795Z,13
2018-10-07T11:32:26.641Z,13.01
2018-10-07T11:33:35.937Z,13.05
2018-10-07T11:34:45.940Z,13.15
2018-10-07T11:35:56.021Z,13.23
2018-10-07T11:37:05.055Z,13.28
2018-10-07T11:38:14.357Z,13.28
2018-10-07T11:39:24.205Z,13.28
2018-10-07T11:40:34.384Z,13.38
2018-10-07T11:41:44.559Z,13.46
2018-10-07T11:42:54.409Z,13.45
2018-10-07T11:44:03.710Z,13.52
2018-10-07T11:45:13.287Z,13.48
2018-10-07T11:46:22.859Z,13.49
2018-10-07T11:47:32.439Z,13.44
2018-10-07T11:48:42.281Z,13.45
2018-10-07T11:49:51.849Z,13.32
2018-10-07T11:51:01.424Z,13.44
2018-10-07T11:52:11.267Z,13.29
2018-10-07T11:53:20.849Z,13.39
2018-10-07T11:54:30.426Z,13.38
2018-10-07T11:55:40.545Z,13.49
2018-10-07T11:56:50.124Z,13.57
2018-10-07T11:57:59.978Z,13.52
2018-10-07T11:59:09.557Z,13.64
2018-10-07T12:00:19.122Z,13.78
2018-10-07T12:01:28.419Z,13.73
2018-10-07T12:02:38.428Z,13.63
2018-10-07T12:03:48.153Z,13.6
2018-10-07T12:04:57.996Z,13.6
2018-10-07T12:06:08.114Z,13.73
2018-10-07T12:07:17.425Z,13.89
2018-10-07T12:08:26.996Z,14.03
2018-10-07T12:09:36.830Z,13.96
2018-10-07T12:10:46.137Z,14.07
2018-10-07T12:11:55.435Z,14.12
2018-10-07T12:13:05.282Z,14.17
2018-10-07T12:14:14.902Z,14.17
2018-10-07T12:15:24.748Z,14.21
2018-10-07T12:16:34.841Z,14.21
2018-10-07T12:17:44.398Z,14.2
2018-10-07T12:18:53.976Z,14.28
2018-10-07T12:20:03.817Z,14.32
2018-10-07T12:21:13.390Z,14.35
2018-10-07T12:22:23.510Z,14.27
2018-10-07T12:23:33.351Z,14.28
2018-10-07T12:24:42.927Z,14.18
2018-10-07T12:25:52.774Z,14.1
2018-10-07T12:27:02.400Z,14.15
2018-10-07T12:28:11.987Z,14.1
2018-10-07T12:29:21.834Z,14.09
2018-10-07T12:30:31.953Z,14.04
2018-10-07T12:31:42.062Z,14.02
2018-10-07T12:32:51.416Z,14.07
2018-10-07T12:34:01.270Z,14.07
2018-10-07T12:35:10.851Z,14.07
2018-10-07T12:36:20.980Z,14.09
2018-10-07T12:37:31.095Z,14.17
2018-10-07T12:38:41.213Z,14.21
2018-10-07T12:39:51.321Z,14.39
2018-10-07T12:41:00.893Z,14.46
2018-10-07T12:42:10.469Z,14.46
2018-10-07T12:43:20.582Z,14.55
2018-10-07T12:44:30.696Z,14.57
2018-10-07T12:45:40.820Z,14.62
2018-10-07T12:46:50.929Z,14.64
2018-10-07T12:48:00.779Z,14.64
2018-10-07T12:49:10.091Z,14.83
2018-10-07T12:50:19.666Z,14.88
2018-10-07T12:51:29.774Z,14.84
2018-10-07T12:52:39.349Z,14.89
2018-10-07T12:53:49.277Z,14.78
2018-10-07T12:54:58.930Z,14.77
2018-10-07T12:56:09.057Z,14.78
2018-10-07T12:57:18.899Z,14.78
2018-10-07T12:58:28.743Z,14.64
2018-10-07T12:59:38.856Z,14.62
2018-10-07T13:00:48.698Z,14.61
2018-10-07T13:01:58.867Z,14.73
2018-10-07T13:03:08.992Z,14.72
2018-10-07T13:04:18.834Z,14.77
2018-10-07T13:05:28.958Z,14.7
2018-10-07T13:06:38.536Z,14.75
2018-10-07T13:07:47.572Z,14.8
2018-10-07T13:08:57.681Z,14.94
2018-10-07T13:10:06.991Z,15.01
2018-10-07T13:11:16.832Z,14.94
2018-10-07T13:12:26.677Z,14.98
2018-10-07T13:13:36.521Z,14.98
2018-10-07T13:14:46.370Z,15.01
2018-10-07T13:15:56.494Z,15.09
2018-10-07T13:17:06.346Z,15.23
2018-10-07T13:18:16.194Z,15.25
2018-10-07T13:19:26.327Z,15.2
2018-10-07T13:20:36.290Z,15.25
2018-10-07T13:21:45.867Z,15.28
2018-10-07T13:22:55.996Z,15.27
2018-10-07T13:24:05.844Z,15.27
2018-10-07T13:25:15.153Z,15.27
2018-10-07T13:26:24.997Z,15.27
2018-10-07T13:27:34.613Z,15.02
2018-10-07T13:28:44.197Z,15.13
2018-10-07T13:29:54.052Z,15.14
2018-10-07T13:31:03.948Z,15.1
2018-10-07T13:32:13.805Z,15.06
2018-10-07T13:33:23.378Z,14.99
2018-10-07T13:34:33.244Z,14.96
2018-10-07T13:35:42.548Z,15.01
2018-10-07T13:36:52.129Z,14.98
2018-10-07T13:38:01.157Z,14.91
2018-10-07T13:39:10.734Z,14.99
2018-10-07T13:40:20.311Z,14.99
2018-10-07T13:41:29.891Z,15.11
2018-10-07T13:42:39.524Z,15.1
2018-10-07T13:43:49.097Z,15.29
2018-10-07T13:44:58.668Z,15.31
2018-10-07T13:46:08.796Z,15.39
2018-10-07T13:47:18.911Z,15.28
2018-10-07T13:48:28.215Z,15.29
2018-10-07T13:49:37.793Z,15.36
2018-10-07T13:50:47.659Z,15.41
2018-10-07T13:51:57.236Z,15.43
2018-10-07T13:53:06.822Z,15.23
2018-10-07T13:54:16.718Z,15.27
2018-10-07T13:55:26.577Z,15.32
2018-10-07T13:56:36.687Z,15.21
2018-10-07T13:57:46.538Z,15.16
2018-10-07T13:58:56.656Z,15.14
2018-10-07T14:00:06.507Z,15.01
2018-10-07T14:01:16.405Z,14.96
2018-10-07T14:02:26.246Z,15.01
2018-10-07T14:03:36.163Z,15.02
2018-10-07T14:04:46.051Z,14.99
2018-10-07T14:05:55.382Z,14.98
2018-10-07T14:07:04.983Z,14.98
2018-10-07T14:08:14.833Z,14.99
2018-10-07T14:09:24.137Z,15.03
2018-10-07T14:10:33.718Z,14.94
2018-10-07T14:11:43.290Z,14.91
2018-10-07T14:12:53.415Z,14.86
2018-10-07T14:14:03.258Z,14.86
2018-10-07T14:15:12.623Z,14.89
2018-10-07T14:16:22.466Z,14.8
2018-10-07T14:17:32.313Z,14.84
2018-10-07T14:18:42.461Z,14.69
2018-10-07T14:19:52.037Z,14.7
2018-10-07T14:21:01.894Z,14.62
2018-10-07T14:22:11.202Z,14.69
2018-10-07T14:23:20.778Z,14.65
2018-10-07T14:24:30.899Z,14.62
2018-10-07T14:25:40.742Z,14.6
2018-10-07T14:26:50.095Z,14.58
2018-10-07T14:27:59.723Z,14.58
2018-10-07T14:29:09.306Z,14.58
2018-10-07T14:30:18.881Z,14.61
2018-10-07T14:31:28.988Z,14.57
2018-10-07T14:32:39.098Z,14.55
2018-10-07T14:33:48.943Z,14.52
2018-10-07T14:34:58.532Z,14.54
2018-10-07T14:36:07.843Z,14.55
2018-10-07T14:37:17.689Z,14.62
2018-10-07T14:38:27.540Z,14.51
2018-10-07T14:39:37.651Z,14.65
2018-10-07T14:40:47.235Z,14.6
2018-10-07T14:41:57.085Z,14.75
2018-10-07T14:43:06.659Z,14.65
2018-10-07T14:44:16.833Z,14.75
2018-10-07T14:45:26.676Z,14.83
2018-10-07T14:46:36.529Z,14.89
2018-10-07T14:47:46.436Z,14.84
2018-10-07T14:48:56.014Z,14.83
2018-10-07T14:50:05.871Z,14.77
2018-10-07T14:51:15.448Z,14.75
2018-10-07T14:52:25.294Z,14.81
2018-10-07T14:53:35.142Z,14.83
2018-10-07T14:54:45.259Z,14.84
2018-10-07T14:55:55.440Z,14.8
2018-10-07T14:57:05.016Z,14.8
2018-10-07T14:58:14.332Z,14.84
2018-10-07T14:59:24.181Z,14.75
2018-10-07T15:00:33.482Z,14.8
2018-10-07T15:01:43.323Z,14.78
2018-10-07T15:02:52.628Z,14.81
2018-10-07T15:04:01.932Z,14.8
2018-10-07T15:05:11.780Z,14.8
2018-10-07T15:06:21.894Z,14.81
2018-10-07T15:07:31.738Z,14.77
2018-10-07T15:08:41.320Z,14.75
2018-10-07T15:09:51.100Z,14.6
2018-10-07T15:11:00.947Z,14.72
2018-10-07T15:12:10.793Z,14.61